Time;durP1;ratioP1;P1;durP2;ratioP2;P2;SDS_P1;SDS_P2;PMS_P1;PMS_P2;Temp;Humidity;BMP_temperature;BMP_pressure;BME280_temperature;BME280_humidity;BME280_pressure;Samples;Min_cycle;Max_cycle;Signal;HPM_P1;HPM_P2
2021/08/10 00:03:17;;;;;;;5.53;2.17;;;;;;;18.14;63.49;100998.20;5045696;59;21538;-83
2021/08/10 00:08:23;;;;;;;3.20;1.67;;;;;;;18.04;63.65;100994.76;5009224;59;21167;-79
2021/08/10 00:13:29;;;;;;;4.27;1.67;;;;;;;17.97;63.81;100996.39;4995973;59;21179;-80
2021/08/10 00:18:35;;;;;;;4.60;2.10;;;;;;;17.88;63.78;100989.62;4995855;59;21203;-80
2021/08/10 00:23:41;;;;;;;4.87;2.20;;;;;;;17.81;64.24;100985.05;4995645;59;21167;-77
2021/08/10 00:28:46;;;;;;;4.20;2.43;;;;;;;17.77;64.38;100985.85;4996053;59;21183;-77
2021/08/10 00:33:52;;;;;;;7.37;3.10;;;;;;;17.79;64.55;100980.35;4994777;59;21210;-82
2021/08/10 00:38:58;;;;;;;9.30;4.00;;;;;;;17.85;64.79;100986.44;4994896;59;21124;-79
2021/08/10 00:44:05;;;;;;;16.43;6.00;;;;;;;17.87;64.79;100987.13;4995202;59;21627;-77
2021/08/10 00:49:11;;;;;;;23.83;8.03;;;;;;;17.84;64.76;100993.63;4995974;59;21207;-78
2021/08/10 00:54:17;;;;;;;18.57;6.37;;;;;;;17.80;64.79;100996.75;4996555;58;21175;-79
2021/08/10 00:59:24;;;;;;;11.47;5.13;;;;;;;17.72;64.69;100998.84;4996417;59;21178;-77
2021/08/10 01:04:32;;;;;;;16.97;3.60;;;;;;;17.64;65.01;100996.59;4995994;59;21672;-78
2021/08/10 01:10:00;;;;;;;8.77;3.27;;;;;;;17.61;65.11;100992.86;5034533;59;21768;-83
2021/08/10 01:15:23;;;;;;;4.90;2.77;;;;;;;17.38;65.85;101035.26;5035023;58;21199;-80
2021/08/10 01:21:14;;;;;;;4.47;3.10;;;;;;;16.77;65.87;101012.64;5036211;59;21179;-78
2021/08/10 01:26:47;;;;;;;10.63;3.77;;;;;;;16.56;66.54;101015.14;5036496;58;22174;-82
2021/08/10 01:31:53;;;;;;;7.40;3.30;;;;;;;16.60;67.73;101011.20;5035778;59;21113;-82
2021/08/10 01:37:05;;;;;;;8.60;3.17;;;;;;;16.74;67.54;101010.75;5036281;57;21235;-83
2021/08/10 01:42:13;;;;;;;3.73;3.33;;;;;;;16.68;67.78;101036.70;5035946;59;21184;-78
2021/08/10 01:47:21;;;;;;;4.80;2.93;;;;;;;16.43;68.09;101018.13;5035720;59;21463;-80
2021/08/10 01:52:29;;;;;;;13.23;4.23;;;;;;;16.45;68.63;101022.84;5036055;59;22154;-81
2021/08/10 01:57:40;;;;;;;7.93;3.07;;;;;;;16.60;68.79;101013.87;5036293;58;21168;-82
2021/08/10 02:02:49;;;;;;;21.13;5.80;;;;;;;16.75;68.81;101003.94;5036030;59;21220;-81
2021/08/10 02:08:11;;;;;;;25.40;6.27;;;;;;;16.84;68.90;101010.20;5007875;58;21202;-82
2021/08/10 02:13:18;;;;;;;11.43;4.20;;;;;;;16.87;68.58;101003.23;4980589;59;21235;-82
2021/08/10 02:18:25;;;;;;;10.20;4.03;;;;;;;16.76;68.56;100999.44;4996894;59;21240;-83
2021/08/10 02:23:47;;;;;;;9.83;3.67;;;;;;;16.58;68.92;101002.48;4996952;58;21633;-81
2021/08/10 02:28:54;;;;;;;8.27;3.83;;;;;;;16.58;69.51;100998.48;4997125;59;21211;-82
2021/08/10 02:34:02;;;;;;;12.73;5.23;;;;;;;16.72;70.10;100994.03;4997178;59;21231;-81
2021/08/10 02:39:09;;;;;;;22.50;5.73;;;;;;;16.88;70.23;100996.91;4997100;59;21187;-84
2021/08/10 02:44:17;;;;;;;27.77;7.47;;;;;;;17.00;70.31;100994.38;4996872;59;21176;-79
2021/08/10 02:49:22;;;;;;;34.43;10.57;;;;;;;17.01;69.97;100992.55;4996983;58;21175;-77
2021/08/10 02:54:28;;;;;;;27.70;7.80;;;;;;;16.96;69.87;100986.83;4996762;59;21582;-81
2021/08/10 02:59:51;;;;;;;10.97;5.07;;;;;;;16.92;69.85;100980.09;4996672;59;21219;-83
2021/08/10 03:05:01;;;;;;;10.33;4.00;;;;;;;16.92;70.02;100982.77;4999101;59;21182;-78
2021/08/10 03:10:10;;;;;;;9.03;3.73;;;;;;;16.92;70.22;100969.41;5035804;59;21171;-79
2021/08/10 03:15:23;;;;;;;10.67;3.73;;;;;;;16.87;70.03;100970.69;5035578;59;21205;-81
2021/08/10 03:20:34;;;;;;;8.78;3.45;;;;;;;16.79;69.96;100964.41;5035757;59;21229;-81
2021/08/10 03:25:41;;;;;;;7.13;3.13;;;;;;;16.73;70.19;100963.16;5035647;58;21175;-80
2021/08/10 03:30:48;;;;;;;11.63;4.33;;;;;;;16.73;70.26;100956.48;5034928;59;21176;-78
2021/08/10 03:35:55;;;;;;;10.60;3.23;;;;;;;16.73;70.21;100955.16;5034905;58;21610;-83
2021/08/10 03:41:01;;;;;;;4.93;2.80;;;;;;;16.70;70.34;100955.44;5034888;59;21179;-82
2021/08/10 03:46:08;;;;;;;4.13;2.20;;;;;;;16.68;70.32;100953.91;5035675;58;21268;-79
2021/08/10 03:51:16;;;;;;;8.70;2.90;;;;;;;16.57;70.22;100958.92;5035026;59;21248;-79
2021/08/10 03:56:25;;;;;;;6.53;3.80;;;;;;;16.52;70.55;100954.50;5035144;59;21180;-76
2021/08/10 04:01:34;;;;;;;7.53;2.80;;;;;;;16.57;70.79;100955.41;5035712;59;21650;-81
2021/08/10 04:06:40;;;;;;;12.23;3.23;;;;;;;16.56;70.65;100961.23;5019874;59;21179;-80
2021/08/10 04:11:48;;;;;;;9.40;3.27;;;;;;;16.56;70.87;100957.23;4996547;59;21171;-80
2021/08/10 04:17:00;;;;;;;7.13;2.77;;;;;;;16.49;70.96;100952.98;4997643;58;21171;-82
2021/08/10 04:22:06;;;;;;;13.17;3.40;;;;;;;16.38;70.80;100957.65;5025221;58;21197;-79
2021/08/10 04:27:16;;;;;;;9.77;2.97;;;;;;;16.37;71.43;100957.30;5070285;58;21258;-80
2021/08/10 04:32:24;;;;;;;5.97;3.43;;;;;;;16.34;71.50;100961.12;5053947;58;21237;-76
2021/08/10 04:37:30;;;;;;;15.00;3.77;;;;;;;16.41;71.85;100950.19;5052309;58;21247;-85
2021/08/10 04:42:36;;;;;;;7.80;2.70;;;;;;;16.52;72.11;100948.66;4985217;59;21223;-81
2021/08/10 04:47:44;;;;;;;7.63;2.43;;;;;;;16.54;72.08;100942.69;4985244;59;21667;-80
2021/08/10 04:52:50;;;;;;;6.40;4.00;;;;;;;16.52;72.24;100938.48;4984746;59;21547;-80
2021/08/10 04:57:57;;;;;;;9.60;5.30;;;;;;;16.47;73.06;100928.75;5020769;58;21126;-80
2021/08/10 05:03:04;;;;;;;14.80;6.40;;;;;;;16.50;73.16;100935.11;4985180;59;21181;-82
2021/08/10 05:08:10;;;;;;;31.07;8.03;;;;;;;16.61;73.49;100941.63;5002497;59;22135;-84
2021/08/10 05:13:17;;;;;;;18.03;6.13;;;;;;;16.71;73.37;100949.11;5010010;59;21175;-82
2021/08/10 05:18:22;;;;;;;30.83;5.47;;;;;;;16.83;73.21;100940.40;5004204;59;21617;-79
2021/08/10 05:23:28;;;;;;;31.27;5.23;;;;;;;17.01;73.35;100938.61;4987008;59;22112;-84
2021/08/10 05:28:36;;;;;;;18.20;4.70;;;;;;;17.19;73.30;100938.64;4978037;58;21527;-82
2021/08/10 05:33:43;;;;;;;13.07;3.80;;;;;;;17.35;72.77;100936.62;4967524;59;21670;-82
2021/08/10 05:38:53;;;;;;;7.43;3.47;;;;;;;17.37;72.14;100947.52;4967469;59;21122;-78
2021/08/10 05:43:58;;;;;;;13.30;2.90;;;;;;;17.52;72.30;100933.11;4971998;59;21197;-81
2021/08/10 05:49:04;;;;;;;4.63;2.97;;;;;;;17.70;72.38;100936.65;4967839;59;21213;-81
2021/08/10 05:54:13;;;;;;;9.67;3.10;;;;;;;17.94;72.30;100937.32;4967597;59;22150;-83
2021/08/10 05:59:18;;;;;;;6.23;3.20;;;;;;;18.15;72.03;100930.28;4967729;59;21224;-82
2021/08/10 06:04:25;;;;;;;9.57;2.93;;;;;;;18.35;71.60;100930.38;4967783;59;21125;-79
2021/08/10 06:09:32;;;;;;;4.87;2.80;;;;;;;18.60;71.12;100927.38;5046689;59;21568;-82
2021/08/10 06:14:39;;;;;;;8.00;4.53;;;;;;;18.85;71.07;100917.07;4908251;59;21122;-83
2021/08/10 06:19:45;;;;;;;7.60;3.17;;;;;;;19.14;71.06;100915.30;5056476;58;21218;-84
2021/08/10 06:24:50;;;;;;;6.05;2.87;;;;;;;19.40;69.98;100911.13;5070325;58;21165;-82
2021/08/10 06:29:56;;;;;;;4.30;2.70;;;;;;;19.62;69.30;100917.22;5057527;58;21179;-81
2021/08/10 06:35:02;;;;;;;8.00;4.40;;;;;;;19.87;68.59;100914.51;4997963;59;21499;-82
2021/08/10 06:40:10;;;;;;;3.30;2.20;;;;;;;20.09;67.61;100911.13;4998216;59;21633;-86
2021/08/10 06:45:16;;;;;;;3.70;2.40;;;;;;;20.23;66.69;100916.30;4997751;59;21184;-84
2021/08/10 06:50:22;;;;;;;9.43;2.35;;;;;;;20.28;65.95;100920.66;4997955;59;21184;-84
2021/08/10 06:55:28;;;;;;;8.95;3.60;;;;;;;20.30;65.11;100927.55;4997817;59;21176;-77
2021/08/10 07:00:36;;;;;;;4.92;2.58;;;;;;;20.41;65.99;100926.86;4998015;59;22115;-81
2021/08/10 07:05:44;;;;;;;4.00;2.40;;;;;;;20.53;64.94;100932.19;5008928;58;21145;-81
2021/08/10 07:10:50;;;;;;;4.30;2.58;;;;;;;20.63;64.93;100936.34;5070472;58;21157;-85
2021/08/10 07:15:56;;;;;;;4.03;2.08;;;;;;;20.78;63.06;100936.98;5070317;58;21202;-81
2021/08/10 07:21:03;;;;;;;3.50;2.40;;;;;;;20.77;62.67;100929.42;5070434;57;21559;-85
2021/08/10 07:26:09;;;;;;;3.35;1.98;;;;;;;20.84;62.33;100930.38;5070459;58;22253;-80
2021/08/10 07:31:15;;;;;;;10.60;2.80;;;;;;;20.82;61.73;100914.09;5038875;58;21192;-78
2021/08/10 07:36:20;;;;;;;4.08;2.00;;;;;;;20.83;62.03;100927.36;4998265;59;21121;-82
2021/08/10 07:41:27;;;;;;;4.05;2.20;;;;;;;20.85;60.45;100932.56;4998176;59;21179;-83
2021/08/10 07:46:34;;;;;;;4.65;2.27;;;;;;;20.86;61.53;100927.02;4998289;59;21168;-83
2021/08/10 07:51:40;;;;;;;2.08;1.87;;;;;;;20.88;61.08;100933.05;4998327;59;21212;-82
2021/08/10 07:56:47;;;;;;;7.28;2.20;;;;;;;20.88;61.79;100937.09;4998436;59;21697;-88
2021/08/10 08:01:53;;;;;;;4.10;2.27;;;;;;;20.90;61.88;100935.06;4998738;59;22139;-82
2021/08/10 08:06:59;;;;;;;4.72;2.00;;;;;;;20.93;61.25;100946.79;5032212;58;21210;-84
2021/08/10 08:12:07;;;;;;;4.08;2.15;;;;;;;20.93;61.98;100942.75;5070811;58;21177;-84
2021/08/10 08:17:13;;;;;;;6.67;2.72;;;;;;;20.91;61.94;100933.22;5070637;58;21523;-86
2021/08/10 08:22:19;;;;;;;5.83;2.45;;;;;;;20.93;62.42;100925.81;5070539;57;21224;-78
2021/08/10 08:27:25;;;;;;;4.53;2.20;;;;;;;20.88;61.98;100938.44;5070496;58;21212;-83
2021/08/10 08:32:31;;;;;;;6.10;2.22;;;;;;;20.85;61.97;100934.74;5020514;58;21224;-86
2021/08/10 08:37:37;;;;;;;4.53;2.37;;;;;;;20.83;62.34;100929.20;4998292;59;21172;-85
2021/08/10 08:42:43;;;;;;;6.72;2.40;;;;;;;20.82;62.33;100928.37;4998189;59;21165;-87
2021/08/10 08:47:53;;;;;;;6.53;2.67;;;;;;;20.81;62.38;100927.20;4998205;59;21225;-83
2021/08/10 08:53:03;;;;;;;5.92;3.10;;;;;;;20.88;62.52;100914.73;4984916;59;22145;-84
2021/08/10 08:58:09;;;;;;;6.58;2.37;;;;;;;20.88;62.05;100916.09;4975238;59;21546;-83
2021/08/10 09:03:15;;;;;;;5.08;2.80;;;;;;;20.93;62.48;100919.09;4997993;59;21117;-80
2021/08/10 09:08:32;;;;;;;4.72;3.15;;;;;;;21.02;62.63;100917.52;5050900;58;21532;-80
2021/08/10 09:13:42;;;;;;;6.80;2.58;;;;;;;21.06;62.27;100928.26;4937037;60;22176;-83
2021/08/10 09:18:47;;;;;;;6.53;2.27;;;;;;;21.13;62.12;100917.61;4841951;61;21244;-84
2021/08/10 09:24:00;;;;;;;3.33;2.52;;;;;;;21.23;62.39;100916.92;4833532;60;21184;-83
2021/08/10 09:29:07;;;;;;;2.52;1.95;;;;;;;21.34;62.52;100916.50;5043146;59;21157;-84
2021/08/10 09:34:25;;;;;;;10.98;2.77;;;;;;;21.44;62.05;100919.45;4906891;60;21630;-82
2021/08/10 09:39:36;;;;;;;6.22;1.45;;;;;;;21.44;62.17;100928.36;5047260;59;21181;-82
2021/08/10 09:45:04;;;;;;;3.17;2.45;;;;;;;21.34;61.79;100968.13;4908190;60;21182;-85
2021/08/10 09:50:25;;;;;;;6.78;2.90;;;;;;;21.08;64.87;100952.80;5047782;59;21185;-84
2021/08/10 09:55:31;;;;;;;10.08;4.12;;;;;;;20.92;67.14;100945.65;5046599;59;21200;-82
2021/08/10 10:00:50;;;;;;;9.48;3.30;;;;;;;20.67;67.65;100931.46;4967757;59;21194;-80
2021/08/10 10:05:50;;;;;;;20.02;3.85;;;;;;;20.69;68.23;100910.63;4984936;59;21192;-80
2021/08/10 10:10:57;;;;;;;4.47;3.30;;;;;;;20.82;68.86;100909.55;5047706;59;21138;-83
2021/08/10 10:16:08;;;;;;;5.45;2.50;;;;;;;20.92;68.78;100898.09;5042683;59;21201;-81
2021/08/10 10:21:16;;;;;;;7.10;3.15;;;;;;;21.01;68.56;100894.33;4907470;59;21185;-83
2021/08/10 10:26:23;;;;;;;6.70;2.55;;;;;;;21.12;68.80;100891.72;5043206;59;21154;-80
2021/08/10 10:31:29;;;;;;;3.87;2.72;;;;;;;21.19;68.89;100895.42;4907426;60;21673;-83
2021/08/10 10:36:36;;;;;;;3.12;2.83;;;;;;;21.23;67.53;100880.61;5047540;59;21146;-81
2021/08/10 10:41:43;;;;;;;9.23;3.40;;;;;;;21.23;67.38;100869.84;4907134;60;21261;-81
2021/08/10 10:46:49;;;;;;;23.83;3.98;;;;;;;21.30;67.83;100865.91;5047473;59;21750;-85
2021/08/10 10:51:58;;;;;;;9.45;3.52;;;;;;;21.31;67.23;100861.69;4907056;60;21177;-84
2021/08/10 10:57:05;;;;;;;5.83;3.40;;;;;;;21.31;67.25;100853.63;4987292;59;21165;-82
2021/08/10 11:02:18;;;;;;;7.00;3.12;;;;;;;21.36;67.82;100834.25;4967415;59;21212;-82
2021/08/10 11:07:50;;;;;;;7.60;3.95;;;;;;;21.45;67.51;100827.77;5011302;59;21244;-82
2021/08/10 11:12:56;;;;;;;3.77;2.40;;;;;;;21.63;67.62;100830.13;4907298;60;21166;-81
2021/08/10 11:18:15;;;;;;;5.83;3.00;;;;;;;21.81;66.09;100832.48;5047417;59;21170;-84
2021/08/10 11:23:29;;;;;;;6.87;2.58;;;;;;;21.90;65.58;100844.83;4907271;59;21185;-83
2021/08/10 11:28:51;;;;;;;6.92;3.08;;;;;;;21.94;65.21;100839.41;5047835;59;21757;-82
2021/08/10 11:33:53;;;;;;;6.08;2.22;;;;;;;21.97;64.62;100842.57;4820131;61;21525;-83
2021/08/10 11:39:07;;;;;;;2.65;1.95;;;;;;;21.95;65.21;100835.18;5047676;59;21181;-81
2021/08/10 11:44:22;;;;;;;2.37;2.15;;;;;;;21.91;65.93;100831.17;4907267;59;21185;-82
2021/08/10 11:49:28;;;;;;;5.17;2.67;;;;;;;21.93;66.32;100826.45;5047600;59;21201;-81
2021/08/10 11:54:34;;;;;;;8.00;3.92;;;;;;;21.99;66.37;100815.45;5047472;59;21193;-84
2021/08/10 11:59:39;;;;;;;4.87;2.20;;;;;;;22.07;66.39;100809.98;4843340;60;21649;-81
2021/08/10 12:04:45;;;;;;;3.50;2.02;;;;;;;22.15;66.50;100801.83;4968714;59;21504;-83
2021/08/10 12:09:51;;;;;;;6.22;1.90;;;;;;;22.21;65.58;100809.14;4907274;60;21201;-83
2021/08/10 12:14:56;;;;;;;3.17;2.20;;;;;;;22.28;63.60;100789.03;5047109;59;21165;-81
2021/08/10 12:20:07;;;;;;;3.00;2.60;;;;;;;22.37;63.21;100773.06;4907103;60;21218;-86
2021/08/10 12:25:12;;;;;;;2.17;1.92;;;;;;;22.44;63.15;100766.73;5061991;57;21095;-85
2021/08/10 12:30:18;;;;;;;1.82;1.72;;;;;;;22.54;62.29;100752.94;5069873;58;21511;-84
2021/08/10 12:35:27;;;;;;;12.90;4.60;;;;;;;22.62;61.21;100750.62;5069910;58;21523;-85
2021/08/10 12:40:32;;;;;;;2.55;1.85;;;;;;;22.73;59.47;100741.53;5069843;58;21497;-83
2021/08/10 12:45:37;;;;;;;4.97;1.90;;;;;;;22.86;58.55;100742.71;5070055;58;21653;-88
2021/08/10 12:50:43;;;;;;;5.78;1.65;;;;;;;22.91;58.90;100739.77;5070268;58;21185;-86
2021/08/10 12:55:52;;;;;;;7.22;1.52;;;;;;;22.99;57.78;100735.56;5036020;58;21185;-88
2021/08/10 13:01:07;;;;;;;2.05;1.27;;;;;;;22.95;56.72;100747.77;4997739;59;21637;-82
2021/08/10 13:06:25;;;;;;;3.22;1.92;;;;;;;22.92;56.12;100752.19;5020047;58;21161;-82
2021/08/10 13:11:31;;;;;;;10.43;1.50;;;;;;;22.81;55.32;100752.72;5069527;58;21138;-84
2021/08/10 13:16:46;;;;;;;9.95;2.37;;;;;;;22.70;55.30;100741.08;5050408;58;21178;-81
2021/08/10 13:21:54;;;;;;;7.28;2.10;;;;;;;22.60;56.32;100741.91;4997605;59;21165;-83
2021/08/10 13:27:00;;;;;;;15.93;1.77;;;;;;;22.52;57.19;100740.16;5032285;58;21097;-85
2021/08/10 13:32:09;;;;;;;8.78;2.00;;;;;;;22.46;57.98;100733.66;5035687;58;21145;-83
2021/08/10 13:37:15;;;;;;;4.22;2.00;;;;;;;22.44;58.67;100726.31;5034650;59;21172;-81
2021/08/10 13:42:21;;;;;;;6.90;1.62;;;;;;;22.44;59.66;100734.91;5035607;59;21154;-82
2021/08/10 13:47:26;;;;;;;5.72;2.80;;;;;;;22.41;59.96;100737.47;5035525;59;21148;-84
2021/08/10 13:52:32;;;;;;;2.67;1.87;;;;;;;22.36;60.73;100735.84;5035499;58;21152;-81
2021/08/10 13:57:40;;;;;;;4.00;2.40;;;;;;;22.34;60.93;100739.23;5035400;59;21177;-81
2021/08/10 14:02:45;;;;;;;2.45;1.60;;;;;;;22.31;60.95;100728.83;5035550;59;21098;-85
2021/08/10 14:07:51;;;;;;;1.50;1.40;;;;;;;22.34;61.61;100735.70;5002407;59;21776;-81
2021/08/10 14:12:57;;;;;;;5.35;2.20;;;;;;;22.36;60.81;100756.56;4983876;59;21207;-81
2021/08/10 14:18:04;;;;;;;3.30;2.40;;;;;;;22.30;60.64;100764.08;4983820;59;21221;-85
2021/08/10 14:23:09;;;;;;;11.22;8.43;;;;;;;22.08;60.83;100761.83;4983599;58;21168;-84
2021/08/10 14:28:15;;;;;;;7.35;3.50;;;;;;;21.88;61.40;100771.45;4993701;59;21216;-82
2021/08/10 14:33:21;;;;;;;8.55;2.60;;;;;;;21.65;59.94;100772.91;4993974;59;21160;-85
2021/08/10 14:38:27;;;;;;;3.17;2.12;;;;;;;21.59;60.52;100772.29;4993883;59;21109;-80
2021/08/10 14:43:33;;;;;;;4.83;2.90;;;;;;;21.60;61.24;100757.81;4993901;59;21637;-83
2021/08/10 14:48:39;;;;;;;7.03;4.95;;;;;;;21.57;62.03;100747.41;4993862;59;21204;-82
2021/08/10 14:53:45;;;;;;;17.95;7.65;;;;;;;21.41;62.20;100732.27;4993705;59;21642;-84
2021/08/10 14:58:50;;;;;;;7.37;3.60;;;;;;;21.33;62.58;100721.09;4993797;59;21133;-83
2021/08/10 15:03:56;;;;;;;6.12;3.50;;;;;;;21.38;62.77;100699.03;4993953;59;21213;-81
2021/08/10 15:09:02;;;;;;;6.50;3.60;;;;;;;21.47;63.18;100691.18;4916998;59;21197;-82
2021/08/10 15:14:08;;;;;;;5.62;2.80;;;;;;;21.62;63.79;100692.52;4873039;60;21172;-83
2021/08/10 15:19:14;;;;;;;4.70;2.72;;;;;;;21.86;63.33;100688.67;4869308;60;22153;-83
2021/08/10 15:24:19;;;;;;;5.80;2.35;;;;;;;22.08;62.72;100679.67;4887023;59;21106;-85
2021/08/10 15:29:25;;;;;;;3.10;2.42;;;;;;;22.25;63.07;100675.72;5013011;59;21198;-84
2021/08/10 15:34:31;;;;;;;3.50;1.87;;;;;;;22.41;62.82;100672.78;5007798;58;21212;-81
2021/08/10 15:39:37;;;;;;;5.92;3.20;;;;;;;22.54;63.61;100672.58;5008810;59;21115;-82
2021/08/10 15:44:43;;;;;;;7.92;2.80;;;;;;;22.60;63.52;100667.27;5028388;59;22186;-86
2021/08/10 15:49:48;;;;;;;6.22;3.10;;;;;;;22.70;62.14;100663.72;5002056;58;21174;-81
2021/08/10 15:54:54;;;;;;;5.78;2.75;;;;;;;22.73;61.78;100663.84;4994145;58;21606;-85
2021/08/10 16:00:00;;;;;;;6.40;2.83;;;;;;;22.63;60.97;100670.06;5012230;59;21516;-85
2021/08/10 16:05:07;;;;;;;18.35;3.33;;;;;;;22.59;60.97;100664.25;5035007;59;21173;-84
2021/08/10 16:10:12;;;;;;;7.97;4.30;;;;;;;22.65;61.04;100657.23;5017397;58;21242;-81
2021/08/10 16:15:18;;;;;;;43.23;21.42;;;;;;;22.75;60.92;100658.58;4981352;58;21205;-79
2021/08/10 16:20:25;;;;;;;2.58;2.25;;;;;;;22.80;60.65;100651.27;5016196;59;21626;-83
2021/08/10 16:25:33;;;;;;;32.67;25.50;;;;;;;22.83;60.56;100644.14;4978100;58;21887;-82
2021/08/10 16:30:40;;;;;;;4.58;3.92;;;;;;;22.78;59.93;100639.84;5006719;59;21198;-80
2021/08/10 16:35:45;;;;;;;3.77;2.60;;;;;;;22.77;60.48;100640.34;5026326;59;21133;-83
2021/08/10 16:40:51;;;;;;;14.23;5.58;;;;;;;22.79;61.00;100623.98;5045229;58;21225;-81
2021/08/10 16:45:57;;;;;;;13.70;4.35;;;;;;;22.86;61.20;100625.39;5043096;58;21186;-85
2021/08/10 16:51:04;;;;;;;20.80;6.85;;;;;;;22.86;59.49;100626.22;5038477;59;21209;-84
2021/08/10 16:56:10;;;;;;;10.28;3.05;;;;;;;22.83;58.46;100614.48;5038563;59;21193;-81
2021/08/10 17:01:16;;;;;;;9.05;4.37;;;;;;;22.83;58.34;100613.13;5038938;59;21508;-83
2021/08/10 17:06:21;;;;;;;5.53;3.52;;;;;;;22.72;59.34;100609.08;5038764;59;21187;-84
2021/08/10 17:11:27;;;;;;;5.72;3.72;;;;;;;22.67;59.10;100614.73;5038842;58;21590;-81
2021/08/10 17:16:36;;;;;;;25.48;6.75;;;;;;;22.55;58.76;100614.44;5038685;59;21204;-80
2021/08/10 17:21:43;;;;;;;12.78;4.62;;;;;;;22.35;58.92;100595.90;5038546;59;21555;-84
2021/08/10 17:26:49;;;;;;;16.25;4.60;;;;;;;22.31;59.26;100605.39;5034917;58;21192;-85
2021/08/10 17:31:55;;;;;;;9.60;4.25;;;;;;;22.22;59.09;100610.59;5026516;59;21193;-85
2021/08/10 17:37:01;;;;;;;23.80;5.40;;;;;;;22.08;59.57;100604.25;5026734;59;21146;-83
2021/08/10 17:42:07;;;;;;;12.20;5.00;;;;;;;22.00;59.82;100597.62;5025470;59;21206;-85
2021/08/10 17:47:13;;;;;;;7.85;3.62;;;;;;;21.91;59.78;100602.78;5026500;59;21150;-82
2021/08/10 17:52:19;;;;;;;3.27;2.17;;;;;;;21.76;59.96;100604.17;5026505;59;21201;-85
2021/08/10 17:57:25;;;;;;;14.75;4.53;;;;;;;21.68;60.25;100600.26;5026424;59;22364;-83
2021/08/10 18:02:31;;;;;;;10.48;2.92;;;;;;;21.58;60.53;100600.54;5026662;59;21217;-82
2021/08/10 18:07:36;;;;;;;73.00;14.78;;;;;;;21.49;60.81;100610.27;5028219;58;22352;-82
2021/08/10 18:12:42;;;;;;;47.73;14.90;;;;;;;21.34;60.80;100616.50;5000334;58;21201;-86
2021/08/10 18:17:48;;;;;;;38.23;9.55;;;;;;;21.19;60.70;100619.70;5020051;59;21490;-82
2021/08/10 18:22:54;;;;;;;41.75;11.48;;;;;;;21.06;60.90;100628.38;5006813;58;21217;-84
2021/08/10 18:28:00;;;;;;;50.98;11.15;;;;;;;21.04;61.11;100636.30;4958057;59;21205;-79
2021/08/10 18:33:06;;;;;;;7.05;3.80;;;;;;;20.92;61.32;100630.55;4983300;58;21165;-83
2021/08/10 18:38:12;;;;;;;14.85;6.45;;;;;;;20.88;61.37;100644.53;5018104;58;21174;-81
2021/08/10 18:43:18;;;;;;;6.90;5.22;;;;;;;20.77;61.54;100641.78;5009023;58;21197;-80
2021/08/10 18:48:24;;;;;;;9.50;5.15;;;;;;;20.64;61.68;100646.41;4979202;59;21119;-83
2021/08/10 18:53:30;;;;;;;46.18;16.60;;;;;;;20.56;61.86;100657.75;5036164;59;21207;-85
2021/08/10 18:58:36;;;;;;;17.30;10.48;;;;;;;20.54;62.87;100658.43;5036179;59;21209;-84
2021/08/10 19:03:43;;;;;;;60.08;33.30;;;;;;;20.53;63.11;100667.00;5035959;59;21170;-82
2021/08/10 19:08:49;;;;;;;53.45;32.67;;;;;;;20.51;63.59;100671.71;5035756;59;21158;-82
2021/08/10 19:13:55;;;;;;;37.42;21.27;;;;;;;20.59;63.81;100674.35;5035860;58;21490;-81
2021/08/10 19:19:00;;;;;;;31.90;18.95;;;;;;;20.64;63.77;100667.91;4994997;58;22188;-80
2021/08/10 19:24:06;;;;;;;50.03;31.85;;;;;;;20.68;63.89;100666.54;4985155;58;21158;-83
2021/08/10 19:29:15;;;;;;;41.60;23.38;;;;;;;20.67;64.05;100670.75;4987565;58;21189;-84
2021/08/10 19:34:22;;;;;;;41.92;26.85;;;;;;;20.61;64.20;100670.14;5012432;58;21158;-81
2021/08/10 19:39:28;;;;;;;43.80;30.10;;;;;;;20.41;63.75;100682.38;5017262;59;22114;-85
2021/08/10 19:44:34;;;;;;;35.33;23.22;;;;;;;20.27;64.17;100685.30;5022168;58;21214;-82
2021/08/10 19:49:39;;;;;;;15.72;10.28;;;;;;;20.20;64.51;100687.00;5047640;59;21166;-83
2021/08/10 19:54:45;;;;;;;22.05;9.58;;;;;;;20.15;64.56;100698.30;5047603;59;21106;-82
2021/08/10 19:59:52;;;;;;;14.98;5.97;;;;;;;20.05;64.35;100707.56;5032561;58;21157;-82
2021/08/10 20:04:58;;;;;;;10.08;4.20;;;;;;;19.92;64.49;100717.53;5016535;58;21174;-83
2021/08/10 20:10:05;;;;;;;6.12;3.95;;;;;;;19.81;64.71;100716.08;4868604;59;22272;-83
2021/08/10 20:15:11;;;;;;;28.02;13.58;;;;;;;19.71;64.67;100724.02;5016766;58;21202;-83
2021/08/10 20:20:17;;;;;;;32.90;10.05;;;;;;;19.64;65.45;100722.00;4992112;58;21176;-81
2021/08/10 20:25:23;;;;;;;49.88;19.82;;;;;;;19.60;65.74;100729.22;5005703;58;22031;-81
2021/08/10 20:30:28;;;;;;;23.05;10.90;;;;;;;19.49;65.90;100724.20;5018044;58;21206;-84
2021/08/10 20:35:34;;;;;;;18.32;8.30;;;;;;;19.40;65.99;100722.55;4999800;58;21181;-84
2021/08/10 20:40:40;;;;;;;22.00;11.30;;;;;;;19.23;66.07;100723.92;5047491;58;21213;-83
2021/08/10 20:45:46;;;;;;;24.90;14.80;;;;;;;18.94;66.01;100721.75;5047371;59;21154;-83
2021/08/10 20:50:51;;;;;;;33.28;15.00;;;;;;;18.63;66.18;100730.64;5046848;59;21149;-84
2021/08/10 20:55:57;;;;;;;23.98;12.07;;;;;;;18.30;66.92;100737.23;5046883;59;21172;-83
2021/08/10 21:01:04;;;;;;;32.75;16.40;;;;;;;18.29;68.05;100727.53;5029224;59;21177;-81
2021/08/10 21:06:10;;;;;;;33.67;18.50;;;;;;;18.21;68.17;100729.67;5011436;59;21179;-81
2021/08/10 21:11:16;;;;;;;46.70;27.35;;;;;;;18.29;68.41;100734.22;5046182;59;21112;-83
2021/08/10 21:16:24;;;;;;;36.25;18.95;;;;;;;18.43;68.85;100734.92;5045569;59;21199;-81
2021/08/10 21:21:29;;;;;;;24.50;12.90;;;;;;;18.49;68.25;100722.69;5045786;59;21176;-82
2021/08/10 21:26:36;;;;;;;41.95;15.75;;;;;;;18.35;68.10;100725.52;5045935;59;22104;-83
2021/08/10 21:31:42;;;;;;;21.23;12.53;;;;;;;18.35;68.67;100727.36;5031992;57;21178;-81
2021/08/10 21:36:48;;;;;;;37.95;20.80;;;;;;;18.26;68.51;100718.48;5006050;58;21173;-83
2021/08/10 21:41:53;;;;;;;24.30;12.25;;;;;;;18.13;68.44;100712.76;4975505;59;22213;-83
2021/08/10 21:46:59;;;;;;;20.27;12.73;;;;;;;18.12;69.09;100715.09;5001158;59;21592;-82
2021/08/10 21:52:06;;;;;;;57.78;29.18;;;;;;;18.13;69.53;100697.53;5004423;59;21162;-82
2021/08/10 21:57:11;;;;;;;40.08;16.55;;;;;;;18.18;69.61;100704.55;5027655;59;21177;-81
2021/08/10 22:02:17;;;;;;;23.30;12.43;;;;;;;18.09;69.13;100695.34;5035825;59;21856;-82
2021/08/10 22:07:23;;;;;;;19.70;11.37;;;;;;;18.03;69.24;100703.52;5007805;59;21200;-83
2021/08/10 22:12:28;;;;;;;19.67;10.78;;;;;;;18.03;69.66;100700.84;4984293;59;21168;-83
2021/08/10 22:17:34;;;;;;;18.87;8.97;;;;;;;18.03;69.33;100687.95;4984170;59;21165;-82
2021/08/10 22:22:43;;;;;;;11.20;6.27;;;;;;;17.92;69.12;100696.62;4984646;59;21168;-81
2021/08/10 22:27:48;;;;;;;9.77;5.67;;;;;;;17.84;69.44;100703.30;4984459;59;21160;-83
2021/08/10 22:32:54;;;;;;;15.93;7.50;;;;;;;17.78;69.69;100704.43;4984322;58;21231;-82
2021/08/10 22:38:00;;;;;;;12.43;7.40;;;;;;;17.77;70.13;100714.30;4984168;59;21176;-83
2021/08/10 22:43:05;;;;;;;19.87;8.57;;;;;;;17.75;70.19;100706.08;4983988;59;21205;-82
2021/08/10 22:48:12;;;;;;;12.10;5.33;;;;;;;17.74;70.08;100708.42;4984229;59;21209;-79
2021/08/10 22:53:17;;;;;;;5.50;4.57;;;;;;;17.67;69.72;100705.56;4984140;59;21221;-81
2021/08/10 22:58:24;;;;;;;13.27;7.97;;;;;;;17.66;70.41;100702.55;4983906;59;21160;-83
2021/08/10 23:03:29;;;;;;;19.50;9.70;;;;;;;17.64;70.60;100697.02;4984037;59;21173;-80
2021/08/10 23:08:35;;;;;;;12.13;6.83;;;;;;;17.52;70.30;100695.09;5024699;59;21719;-83
2021/08/10 23:13:41;;;;;;;6.97;4.70;;;;;;;17.37;70.42;100700.69;5035497;59;21187;-82
2021/08/10 23:18:47;;;;;;;20.53;9.73;;;;;;;17.31;70.72;100714.68;5035914;59;21175;-83
2021/08/10 23:23:53;;;;;;;8.47;3.83;;;;;;;17.33;71.09;100714.03;5035743;59;21187;-82
2021/08/10 23:28:58;;;;;;;7.60;4.93;;;;;;;17.22;70.52;100711.97;5035769;59;21203;-82
2021/08/10 23:34:04;;;;;;;9.13;5.10;;;;;;;17.17;71.22;100700.06;5050107;57;21171;-83
2021/08/10 23:39:10;;;;;;;6.37;4.40;;;;;;;17.16;71.19;100699.22;5070106;58;21198;-80
2021/08/10 23:44:16;;;;;;;8.97;5.13;;;;;;;17.14;71.15;100701.21;5070014;58;21179;-82